METAR Data
IDs: Format: Raw Decoded Include TAF

Data at: 1440 UTC 05 Jun 2023

EGGD 051420Z AUTO 05011KT 010V090 9999 NCD 18/08 Q1024